createdAt,value
2023-05-01T00:00:02.226Z,40.5
2023-05-01T00:06:09.221Z,40.5
2023-05-01T00:12:15.149Z,40.5
2023-05-01T00:18:21.138Z,40.5
2023-05-01T00:24:26.513Z,40.5
2023-05-01T00:30:32.514Z,40.5
2023-05-01T00:36:38.066Z,40.5
2023-05-01T00:42:43.857Z,40.5
2023-05-01T00:48:49.889Z,40.5
2023-05-01T00:54:55.253Z,40.5
2023-05-01T01:01:01.475Z,40.5
2023-05-01T01:07:07.359Z,40.4
2023-05-01T01:13:12.796Z,40.5
2023-05-01T01:19:18.309Z,40.4
2023-05-01T01:25:24.076Z,40.4
2023-05-01T01:31:29.701Z,40.4
2023-05-01T01:37:35.838Z,40.4
2023-05-01T01:43:41.670Z,40.3
2023-05-01T01:49:46.828Z,40.3
2023-05-01T01:55:52.620Z,40.3
2023-05-01T02:01:58.483Z,40.3
2023-05-01T02:08:04.341Z,40.3
2023-05-01T02:14:09.963Z,40.3
2023-05-01T02:20:16.079Z,40.3
2023-05-01T02:26:21.308Z,40.3
2023-05-01T02:32:27.450Z,40.2
2023-05-01T02:38:33.208Z,40.2
2023-05-01T02:44:38.595Z,40.2
2023-05-01T02:50:44.227Z,40.2
2023-05-01T02:56:49.948Z,40.2
2023-05-01T03:02:55.554Z,40.2
2023-05-01T03:09:00.927Z,40.1
2023-05-01T03:15:07.061Z,40.2
2023-05-01T03:21:13.099Z,40.2
2023-05-01T03:27:18.629Z,40.1
2023-05-01T03:33:24.841Z,40.1
2023-05-01T03:39:30.381Z,40.1
2023-05-01T03:45:36.374Z,40.1
2023-05-01T03:51:42.542Z,40
2023-05-01T03:57:48.345Z,40.1
2023-05-01T04:03:54.660Z,40.1
2023-05-01T04:10:01.738Z,40.1
2023-05-01T04:16:07.598Z,40
2023-05-01T04:22:13.065Z,40
2023-05-01T04:28:19.230Z,40
2023-05-01T04:34:24.499Z,40
2023-05-01T04:40:29.580Z,40
2023-05-01T04:46:35.676Z,40.1
2023-05-01T04:52:41.733Z,40.1
2023-05-01T04:58:47.580Z,40.1
2023-05-01T05:04:53.325Z,40.1
2023-05-01T05:10:58.945Z,40.1
2023-05-01T05:17:04.438Z,40.1
2023-05-01T05:23:11.516Z,40.1
2023-05-01T05:29:16.664Z,40.1
2023-05-01T05:35:22.462Z,40.1
2023-05-01T05:41:27.968Z,40.1
2023-05-01T05:47:33.202Z,40.1
2023-05-01T05:53:39.121Z,40.1
2023-05-01T05:59:44.959Z,40.1
2023-05-01T06:05:50.524Z,40.2
2023-05-01T06:11:56.297Z,40.1
2023-05-01T06:18:01.843Z,40.1
2023-05-01T06:24:07.669Z,40.1
2023-05-01T06:30:13.399Z,40.1
2023-05-01T06:36:19.139Z,40.1
2023-05-01T06:42:24.559Z,40.2
2023-05-01T06:48:30.173Z,40.1
2023-05-01T06:54:36.079Z,40.1
2023-05-01T07:00:42.329Z,40.2
2023-05-01T07:06:48.544Z,40.2
2023-05-01T07:12:54.699Z,40.2
2023-05-01T07:19:01.040Z,40.2
2023-05-01T07:25:06.649Z,40.1
2023-05-01T07:31:12.156Z,40.2
2023-05-01T07:37:18.137Z,40.2
2023-05-01T07:43:23.923Z,40.2
2023-05-01T07:49:29.907Z,40.2
2023-05-01T07:55:35.466Z,40.2
2023-05-01T08:01:41.470Z,40.2
2023-05-01T08:07:47.526Z,40.2
2023-05-01T08:13:53.423Z,40.2
2023-05-01T08:20:00.023Z,40.2
2023-05-01T08:26:06.209Z,40.2
2023-05-01T08:32:11.833Z,40.3
2023-05-01T08:38:17.152Z,40.3
2023-05-01T08:44:22.920Z,40.3
2023-05-01T08:50:28.518Z,40.3
2023-05-01T08:56:34.130Z,40.3
2023-05-01T09:02:39.886Z,40.4
2023-05-01T09:08:45.211Z,40.4
2023-05-01T09:14:51.196Z,40.4
2023-05-01T09:20:57.175Z,40.4
2023-05-01T09:27:03.037Z,40.5
2023-05-01T09:33:09.006Z,40.5
2023-05-01T09:39:14.981Z,40.6
2023-05-01T09:45:20.916Z,40.6
2023-05-01T09:51:26.685Z,40.7
2023-05-01T09:57:32.652Z,40.7
2023-05-01T10:03:39.029Z,40.7
2023-05-01T10:09:44.887Z,40.8
2023-05-01T10:15:50.238Z,40.7
2023-05-01T10:21:55.586Z,40.9
2023-05-01T10:28:01.758Z,40.8
2023-05-01T10:34:07.336Z,41
2023-05-01T10:40:13.315Z,40.9
2023-05-01T10:46:19.411Z,40.9
2023-05-01T10:52:25.155Z,41
2023-05-01T10:58:30.876Z,41
2023-05-01T11:04:36.894Z,41
2023-05-01T11:10:42.412Z,41
2023-05-01T11:16:48.708Z,41.1
2023-05-01T11:22:54.574Z,41.1
2023-05-01T11:29:00.965Z,41.1
2023-05-01T11:35:06.980Z,41.1
2023-05-01T11:41:12.525Z,41.2
2023-05-01T11:47:17.938Z,41.2
2023-05-01T11:53:23.467Z,41.2
2023-05-01T11:59:29.699Z,41.1
2023-05-01T12:05:35.836Z,41.1
2023-05-01T12:11:42.013Z,41.1
2023-05-01T12:17:47.429Z,41.2
2023-05-01T12:23:53.170Z,41.2
2023-05-01T12:29:59.028Z,41.4
2023-05-01T12:36:04.726Z,41.3
2023-05-01T12:42:10.557Z,41.3
2023-05-01T12:48:16.329Z,41.6
2023-05-01T12:54:22.082Z,41.8
2023-05-01T13:00:27.892Z,41.5
2023-05-01T13:06:34.046Z,41.5
2023-05-01T13:12:40.055Z,41.4
2023-05-01T13:18:46.218Z,41.4
2023-05-01T13:24:52.063Z,41.5
2023-05-01T13:30:57.801Z,41.2
2023-05-01T13:37:03.542Z,41.5
2023-05-01T13:43:09.700Z,41.4
2023-05-01T13:49:15.296Z,41.6
2023-05-01T13:55:21.212Z,41.6
2023-05-01T14:01:27.357Z,41.4
2023-05-01T14:07:33.030Z,41.6
2023-05-01T14:13:38.563Z,41.4
2023-05-01T14:19:44.374Z,41.4
2023-05-01T14:25:50.145Z,41.6
2023-05-01T14:31:56.204Z,41.5
2023-05-01T14:38:01.718Z,41.4
2023-05-01T14:44:07.902Z,41.5
2023-05-01T14:50:13.887Z,41.7
2023-05-01T14:56:19.297Z,41.4
2023-05-01T15:02:25.342Z,41.4
2023-05-01T15:08:31.214Z,41.4
2023-05-01T15:14:36.446Z,41.6
2023-05-01T15:20:42.387Z,41.7
2023-05-01T15:26:48.772Z,41.4
2023-05-01T15:32:55.318Z,41.6
2023-05-01T15:39:00.761Z,41.6
2023-05-01T15:45:06.502Z,41.7
2023-05-01T15:51:12.566Z,41.4
2023-05-01T15:57:18.057Z,41.5
2023-05-01T16:03:24.211Z,41.5
2023-05-01T16:09:30.029Z,41.7
2023-05-01T16:15:35.589Z,41.7
2023-05-01T16:21:41.652Z,41.7
2023-05-01T16:27:47.155Z,41.7
2023-05-01T16:33:52.966Z,41.7
2023-05-01T16:39:59.539Z,41.8
2023-05-01T16:46:06.153Z,41.8
2023-05-01T16:52:11.493Z,42
2023-05-01T16:58:17.666Z,42.1
2023-05-01T17:04:23.296Z,42.1
2023-05-01T17:10:29.014Z,41.8
2023-05-01T17:16:35.649Z,42
2023-05-01T17:22:40.644Z,42
2023-05-01T17:28:46.140Z,42.2
2023-05-01T17:34:52.220Z,41.9
2023-05-01T17:40:58.318Z,41.9
2023-05-01T17:47:03.975Z,42
2023-05-01T17:53:09.892Z,42.2
2023-05-01T17:59:15.923Z,42
2023-05-01T18:05:21.261Z,42.2
2023-05-01T18:11:27.205Z,42
2023-05-01T18:17:33.066Z,42.3
2023-05-01T18:23:38.965Z,42.1
2023-05-01T18:29:44.758Z,42.2
2023-05-01T18:35:50.810Z,42.3
2023-05-01T18:41:56.515Z,42.2
2023-05-01T18:48:03.178Z,42.2
2023-05-01T18:54:09.085Z,42.1
2023-05-01T19:00:15.071Z,42.2
2023-05-01T19:06:20.942Z,42.1
2023-05-01T19:12:26.651Z,42.2
2023-05-01T19:18:32.476Z,42.1
2023-05-01T19:24:38.384Z,42.2
2023-05-01T19:30:43.733Z,42.3
2023-05-01T19:36:49.923Z,42.4
2023-05-01T19:42:55.307Z,42.5
2023-05-01T19:49:01.309Z,42.3
2023-05-01T19:55:07.291Z,42.6
2023-05-01T20:01:13.737Z,42.5
2023-05-01T20:07:21.303Z,42.2
2023-05-01T20:13:26.655Z,42.3
2023-05-01T20:19:32.490Z,42.3
2023-05-01T20:25:38.429Z,42.4
2023-05-01T20:31:44.459Z,42.5
2023-05-01T20:37:50.172Z,42.3
2023-05-01T20:43:56.152Z,42.4
2023-05-01T20:50:02.974Z,42.5
2023-05-01T20:56:08.741Z,42.5
2023-05-01T21:02:14.653Z,42.4
2023-05-01T21:08:20.096Z,42.7
2023-05-01T21:14:26.145Z,42.6
2023-05-01T21:20:31.699Z,42.6
2023-05-01T21:26:37.613Z,42.8
2023-05-01T21:32:43.473Z,42.6
2023-05-01T21:38:49.581Z,42.9
2023-05-01T21:44:55.139Z,42.7
2023-05-01T21:51:01.189Z,43.1
2023-05-01T21:57:06.713Z,43.1
2023-05-01T22:03:12.931Z,43.1
2023-05-01T22:09:19.092Z,43.2
2023-05-01T22:15:24.502Z,43.2
2023-05-01T22:21:30.238Z,42.9
2023-05-01T22:27:36.196Z,43.1
2023-05-01T22:33:42.406Z,43.3
2023-05-01T22:39:48.439Z,43.3
2023-05-01T22:45:53.821Z,43.2
2023-05-01T22:51:59.400Z,43.4
2023-05-01T22:58:05.306Z,43.5
2023-05-01T23:04:11.459Z,43.4
2023-05-01T23:10:17.062Z,43.5
2023-05-01T23:16:23.300Z,43.6
2023-05-01T23:22:29.058Z,43.4
2023-05-01T23:28:35.012Z,43.6
2023-05-01T23:34:40.600Z,43.5
2023-05-01T23:40:45.661Z,43.6
2023-05-01T23:46:51.194Z,43.6
2023-05-01T23:52:56.320Z,43.5
2023-05-01T23:59:02.251Z,43.7
